sensor_id;sensor_type;location;lat;lon;timestamp;P1;durP1;ratioP1;P2;durP2;ratioP2
1601;SDS011;794;48.592;9.634;2023-04-24T00:01:33;1.63;;;1.20;;
1601;SDS011;794;48.592;9.634;2023-04-24T00:04:02;1.67;;;1.00;;
1601;SDS011;794;48.592;9.634;2023-04-24T00:06:30;1.93;;;1.10;;
1601;SDS011;794;48.592;9.634;2023-04-24T00:09:02;0.87;;;0.70;;
1601;SDS011;794;48.592;9.634;2023-04-24T00:11:30;1.40;;;0.80;;
1601;SDS011;794;48.592;9.634;2023-04-24T00:13:56;3.03;;;1.03;;
1601;SDS011;794;48.592;9.634;2023-04-24T00:16:23;1.17;;;0.73;;
1601;SDS011;794;48.592;9.634;2023-04-24T00:18:50;2.00;;;0.90;;
1601;SDS011;794;48.592;9.634;2023-04-24T00:21:18;2.30;;;0.80;;
1601;SDS011;794;48.592;9.634;2023-04-24T00:23:46;1.17;;;0.90;;
1601;SDS011;794;48.592;9.634;2023-04-24T00:26:13;1.70;;;1.00;;
1601;SDS011;794;48.592;9.634;2023-04-24T00:28:40;1.77;;;0.90;;
1601;SDS011;794;48.592;9.634;2023-04-24T00:31:09;1.70;;;0.70;;
1601;SDS011;794;48.592;9.634;2023-04-24T00:33:39;1.17;;;0.60;;
1601;SDS011;794;48.592;9.634;2023-04-24T00:36:08;3.50;;;0.63;;
1601;SDS011;794;48.592;9.634;2023-04-24T00:38:34;1.60;;;0.50;;
1601;SDS011;794;48.592;9.634;2023-04-24T00:41:03;1.90;;;0.70;;
1601;SDS011;794;48.592;9.634;2023-04-24T00:43:30;1.27;;;0.70;;
1601;SDS011;794;48.592;9.634;2023-04-24T00:45:57;1.13;;;0.63;;
1601;SDS011;794;48.592;9.634;2023-04-24T00:48:24;1.17;;;0.57;;
1601;SDS011;794;48.592;9.634;2023-04-24T00:50:54;1.50;;;0.80;;
1601;SDS011;794;48.592;9.634;2023-04-24T00:53:23;1.87;;;0.87;;
1601;SDS011;794;48.592;9.634;2023-04-24T00:55:50;0.90;;;0.80;;
1601;SDS011;794;48.592;9.634;2023-04-24T00:58:19;1.37;;;0.67;;
1601;SDS011;794;48.592;9.634;2023-04-24T01:00:46;1.00;;;0.67;;
1601;SDS011;794;48.592;9.634;2023-04-24T01:03:15;1.00;;;0.80;;
1601;SDS011;794;48.592;9.634;2023-04-24T01:05:46;1.63;;;1.10;;
1601;SDS011;794;48.592;9.634;2023-04-24T01:08:14;1.33;;;0.80;;
1601;SDS011;794;48.592;9.634;2023-04-24T01:10:41;2.27;;;0.70;;
1601;SDS011;794;48.592;9.634;2023-04-24T01:13:12;1.00;;;0.70;;
1601;SDS011;794;48.592;9.634;2023-04-24T01:15:41;1.53;;;0.70;;
1601;SDS011;794;48.592;9.634;2023-04-24T01:18:08;0.60;;;0.60;;
1601;SDS011;794;48.592;9.634;2023-04-24T01:20:35;1.80;;;0.70;;
1601;SDS011;794;48.592;9.634;2023-04-24T01:23:06;1.03;;;0.67;;
1601;SDS011;794;48.592;9.634;2023-04-24T01:25:33;1.03;;;0.70;;
1601;SDS011;794;48.592;9.634;2023-04-24T01:28:03;0.90;;;0.60;;
1601;SDS011;794;48.592;9.634;2023-04-24T01:30:30;1.00;;;0.87;;
1601;SDS011;794;48.592;9.634;2023-04-24T01:32:57;1.13;;;0.90;;
1601;SDS011;794;48.592;9.634;2023-04-24T01:35:25;1.80;;;0.87;;
1601;SDS011;794;48.592;9.634;2023-04-24T01:37:54;1.17;;;0.70;;
1601;SDS011;794;48.592;9.634;2023-04-24T01:40:23;0.70;;;0.70;;
1601;SDS011;794;48.592;9.634;2023-04-24T01:42:50;0.80;;;0.70;;
1601;SDS011;794;48.592;9.634;2023-04-24T01:45:18;1.60;;;1.00;;
1601;SDS011;794;48.592;9.634;2023-04-24T01:47:45;0.77;;;0.70;;
1601;SDS011;794;48.592;9.634;2023-04-24T01:50:12;1.47;;;0.80;;
1601;SDS011;794;48.592;9.634;2023-04-24T01:52:39;0.80;;;0.80;;
1601;SDS011;794;48.592;9.634;2023-04-24T01:55:09;0.97;;;0.70;;
1601;SDS011;794;48.592;9.634;2023-04-24T01:57:40;0.80;;;0.80;;
1601;SDS011;794;48.592;9.634;2023-04-24T02:00:07;1.03;;;0.70;;
1601;SDS011;794;48.592;9.634;2023-04-24T02:02:37;0.80;;;0.80;;
1601;SDS011;794;48.592;9.634;2023-04-24T02:05:08;1.90;;;0.97;;
1601;SDS011;794;48.592;9.634;2023-04-24T02:07:37;1.80;;;0.97;;
1601;SDS011;794;48.592;9.634;2023-04-24T02:10:05;1.73;;;1.07;;
1601;SDS011;794;48.592;9.634;2023-04-24T02:12:35;1.30;;;0.77;;
1601;SDS011;794;48.592;9.634;2023-04-24T02:15:04;1.57;;;0.70;;
1601;SDS011;794;48.592;9.634;2023-04-24T02:17:32;0.90;;;0.77;;
1601;SDS011;794;48.592;9.634;2023-04-24T02:19:59;1.87;;;1.67;;
1601;SDS011;794;48.592;9.634;2023-04-24T02:22:25;2.00;;;1.00;;
1601;SDS011;794;48.592;9.634;2023-04-24T02:24:55;3.20;;;1.43;;
1601;SDS011;794;48.592;9.634;2023-04-24T02:27:24;0.70;;;0.70;;
1601;SDS011;794;48.592;9.634;2023-04-24T02:29:52;1.03;;;0.87;;
1601;SDS011;794;48.592;9.634;2023-04-24T02:32:21;1.63;;;0.87;;
1601;SDS011;794;48.592;9.634;2023-04-24T02:34:48;1.17;;;0.80;;
1601;SDS011;794;48.592;9.634;2023-04-24T02:37:15;1.27;;;0.87;;
1601;SDS011;794;48.592;9.634;2023-04-24T02:39:42;0.83;;;0.80;;
1601;SDS011;794;48.592;9.634;2023-04-24T02:42:09;2.40;;;1.20;;
1601;SDS011;794;48.592;9.634;2023-04-24T02:44:39;1.90;;;1.37;;
1601;SDS011;794;48.592;9.634;2023-04-24T02:47:05;1.00;;;0.90;;
1601;SDS011;794;48.592;9.634;2023-04-24T02:49:37;1.73;;;0.90;;
1601;SDS011;794;48.592;9.634;2023-04-24T02:52:03;0.97;;;0.87;;
1601;SDS011;794;48.592;9.634;2023-04-24T02:54:30;0.90;;;0.90;;
1601;SDS011;794;48.592;9.634;2023-04-24T02:57:00;0.93;;;0.80;;
1601;SDS011;794;48.592;9.634;2023-04-24T02:59:29;2.37;;;1.00;;
1601;SDS011;794;48.592;9.634;2023-04-24T03:01:59;1.20;;;1.00;;
1601;SDS011;794;48.592;9.634;2023-04-24T03:04:28;0.73;;;0.73;;
1601;SDS011;794;48.592;9.634;2023-04-24T03:06:58;1.83;;;1.17;;
1601;SDS011;794;48.592;9.634;2023-04-24T03:09:29;1.27;;;0.83;;
1601;SDS011;794;48.592;9.634;2023-04-24T03:11:57;0.60;;;0.50;;
1601;SDS011;794;48.592;9.634;2023-04-24T03:14:25;2.97;;;1.10;;
1601;SDS011;794;48.592;9.634;2023-04-24T03:16:56;1.20;;;0.83;;
1601;SDS011;794;48.592;9.634;2023-04-24T03:19:23;1.37;;;0.70;;
1601;SDS011;794;48.592;9.634;2023-04-24T03:21:50;1.50;;;0.90;;
1601;SDS011;794;48.592;9.634;2023-04-24T03:24:19;0.87;;;0.87;;
1601;SDS011;794;48.592;9.634;2023-04-24T03:26:47;1.67;;;0.80;;
1601;SDS011;794;48.592;9.634;2023-04-24T03:29:14;0.73;;;0.73;;
1601;SDS011;794;48.592;9.634;2023-04-24T03:31:43;1.10;;;1.00;;
1601;SDS011;794;48.592;9.634;2023-04-24T03:34:10;1.47;;;1.00;;
1601;SDS011;794;48.592;9.634;2023-04-24T03:36:37;1.00;;;0.73;;
1601;SDS011;794;48.592;9.634;2023-04-24T03:39:04;1.17;;;0.60;;
1601;SDS011;794;48.592;9.634;2023-04-24T03:41:34;0.90;;;0.77;;
1601;SDS011;794;48.592;9.634;2023-04-24T03:44:03;2.10;;;1.00;;
1601;SDS011;794;48.592;9.634;2023-04-24T03:46:31;1.50;;;0.60;;
1601;SDS011;794;48.592;9.634;2023-04-24T03:49:00;1.03;;;0.60;;
1601;SDS011;794;48.592;9.634;2023-04-24T03:51:30;0.90;;;0.70;;
1601;SDS011;794;48.592;9.634;2023-04-24T03:53:58;1.63;;;0.70;;
1601;SDS011;794;48.592;9.634;2023-04-24T03:56:25;1.30;;;0.90;;
1601;SDS011;794;48.592;9.634;2023-04-24T03:58:56;1.83;;;0.80;;
1601;SDS011;794;48.592;9.634;2023-04-24T04:01:23;0.67;;;0.60;;
1601;SDS011;794;48.592;9.634;2023-04-24T04:03:49;1.13;;;0.80;;
1601;SDS011;794;48.592;9.634;2023-04-24T04:06:19;0.83;;;0.83;;
1601;SDS011;794;48.592;9.634;2023-04-24T04:08:46;1.10;;;0.67;;
1601;SDS011;794;48.592;9.634;2023-04-24T04:11:13;0.83;;;0.83;;
1601;SDS011;794;48.592;9.634;2023-04-24T04:13:40;1.37;;;0.50;;
1601;SDS011;794;48.592;9.634;2023-04-24T04:16:12;0.90;;;0.70;;
1601;SDS011;794;48.592;9.634;2023-04-24T04:18:38;2.27;;;0.60;;
1601;SDS011;794;48.592;9.634;2023-04-24T04:21:05;0.70;;;0.70;;
1601;SDS011;794;48.592;9.634;2023-04-24T04:23:34;1.70;;;0.87;;
1601;SDS011;794;48.592;9.634;2023-04-24T04:26:04;0.70;;;0.70;;
1601;SDS011;794;48.592;9.634;2023-04-24T04:28:33;0.97;;;0.73;;
1601;SDS011;794;48.592;9.634;2023-04-24T04:31:02;0.77;;;0.73;;
1601;SDS011;794;48.592;9.634;2023-04-24T04:33:33;1.03;;;0.60;;
1601;SDS011;794;48.592;9.634;2023-04-24T04:36:02;2.00;;;0.60;;
1601;SDS011;794;48.592;9.634;2023-04-24T04:38:29;1.27;;;0.60;;
1601;SDS011;794;48.592;9.634;2023-04-24T04:40:56;1.37;;;0.60;;
1601;SDS011;794;48.592;9.634;2023-04-24T04:43:23;2.10;;;0.60;;
1601;SDS011;794;48.592;9.634;2023-04-24T04:45:54;2.00;;;0.70;;
1601;SDS011;794;48.592;9.634;2023-04-24T04:48:22;0.80;;;0.80;;
1601;SDS011;794;48.592;9.634;2023-04-24T04:50:51;0.90;;;0.60;;
1601;SDS011;794;48.592;9.634;2023-04-24T04:53:18;1.00;;;0.60;;
1601;SDS011;794;48.592;9.634;2023-04-24T04:55:44;1.00;;;0.60;;
1601;SDS011;794;48.592;9.634;2023-04-24T04:58:12;2.10;;;0.90;;
1601;SDS011;794;48.592;9.634;2023-04-24T05:00:39;0.73;;;0.63;;
1601;SDS011;794;48.592;9.634;2023-04-24T05:03:09;1.20;;;0.67;;
1601;SDS011;794;48.592;9.634;2023-04-24T05:05:36;1.20;;;0.70;;
1601;SDS011;794;48.592;9.634;2023-04-24T05:08:06;0.60;;;0.60;;
1601;SDS011;794;48.592;9.634;2023-04-24T05:10:34;0.97;;;0.87;;
1601;SDS011;794;48.592;9.634;2023-04-24T05:13:02;0.63;;;0.60;;
1601;SDS011;794;48.592;9.634;2023-04-24T05:15:29;0.83;;;0.73;;
1601;SDS011;794;48.592;9.634;2023-04-24T05:17:57;0.80;;;0.50;;
1601;SDS011;794;48.592;9.634;2023-04-24T05:20:25;0.70;;;0.60;;
1601;SDS011;794;48.592;9.634;2023-04-24T05:22:51;1.10;;;0.70;;
1601;SDS011;794;48.592;9.634;2023-04-24T05:25:20;2.37;;;1.53;;
1601;SDS011;794;48.592;9.634;2023-04-24T05:27:47;7.03;;;1.10;;
1601;SDS011;794;48.592;9.634;2023-04-24T05:30:13;1.93;;;0.83;;
1601;SDS011;794;48.592;9.634;2023-04-24T05:32:40;1.30;;;0.87;;
1601;SDS011;794;48.592;9.634;2023-04-24T05:35:10;0.63;;;0.63;;
1601;SDS011;794;48.592;9.634;2023-04-24T05:37:39;2.83;;;1.07;;
1601;SDS011;794;48.592;9.634;2023-04-24T05:40:08;2.80;;;0.70;;
1601;SDS011;794;48.592;9.634;2023-04-24T05:42:37;1.30;;;1.00;;
1601;SDS011;794;48.592;9.634;2023-04-24T05:45:05;3.37;;;1.33;;
1601;SDS011;794;48.592;9.634;2023-04-24T05:47:32;1.20;;;0.87;;
1601;SDS011;794;48.592;9.634;2023-04-24T05:49:59;1.37;;;0.83;;
1601;SDS011;794;48.592;9.634;2023-04-24T05:52:27;1.33;;;0.77;;
1601;SDS011;794;48.592;9.634;2023-04-24T05:54:54;2.20;;;0.90;;
1601;SDS011;794;48.592;9.634;2023-04-24T05:57:22;1.37;;;0.83;;
1601;SDS011;794;48.592;9.634;2023-04-24T05:59:52;2.30;;;1.13;;
1601;SDS011;794;48.592;9.634;2023-04-24T06:02:19;4.77;;;0.80;;
1601;SDS011;794;48.592;9.634;2023-04-24T06:04:47;1.40;;;0.90;;
1601;SDS011;794;48.592;9.634;2023-04-24T06:07:14;1.10;;;1.00;;
1601;SDS011;794;48.592;9.634;2023-04-24T06:09:43;2.17;;;1.20;;
1601;SDS011;794;48.592;9.634;2023-04-24T06:12:10;1.70;;;1.30;;
1601;SDS011;794;48.592;9.634;2023-04-24T06:14:37;1.37;;;1.20;;
1601;SDS011;794;48.592;9.634;2023-04-24T06:17:05;1.20;;;1.10;;
1601;SDS011;794;48.592;9.634;2023-04-24T06:19:34;1.27;;;1.17;;
1601;SDS011;794;48.592;9.634;2023-04-24T06:22:02;1.40;;;1.30;;
1601;SDS011;794;48.592;9.634;2023-04-24T06:24:29;1.40;;;1.30;;
1601;SDS011;794;48.592;9.634;2023-04-24T06:26:59;1.90;;;1.30;;
1601;SDS011;794;48.592;9.634;2023-04-24T06:29:29;3.43;;;1.43;;
1601;SDS011;794;48.592;9.634;2023-04-24T06:31:55;1.70;;;1.37;;
1601;SDS011;794;48.592;9.634;2023-04-24T06:34:26;1.37;;;1.17;;
1601;SDS011;794;48.592;9.634;2023-04-24T06:36:57;1.70;;;1.30;;
1601;SDS011;794;48.592;9.634;2023-04-24T06:39:24;1.30;;;1.20;;
1601;SDS011;794;48.592;9.634;2023-04-24T06:41:53;1.60;;;1.50;;
1601;SDS011;794;48.592;9.634;2023-04-24T06:44:20;2.87;;;1.53;;
1601;SDS011;794;48.592;9.634;2023-04-24T06:46:47;2.27;;;1.33;;
1601;SDS011;794;48.592;9.634;2023-04-24T06:49:19;1.50;;;1.40;;
1601;SDS011;794;48.592;9.634;2023-04-24T06:51:49;1.50;;;1.23;;
1601;SDS011;794;48.592;9.634;2023-04-24T06:54:16;1.67;;;1.57;;
1601;SDS011;794;48.592;9.634;2023-04-24T06:56:43;1.17;;;1.10;;
1601;SDS011;794;48.592;9.634;2023-04-24T06:59:14;1.93;;;0.90;;
1601;SDS011;794;48.592;9.634;2023-04-24T07:01:41;1.57;;;1.00;;
1601;SDS011;794;48.592;9.634;2023-04-24T07:04:07;0.80;;;0.80;;
1601;SDS011;794;48.592;9.634;2023-04-24T07:06:34;2.47;;;1.20;;
1601;SDS011;794;48.592;9.634;2023-04-24T07:09:04;2.33;;;1.23;;
1601;SDS011;794;48.592;9.634;2023-04-24T07:11:34;1.23;;;1.00;;
1601;SDS011;794;48.592;9.634;2023-04-24T07:14:02;1.20;;;1.10;;
1601;SDS011;794;48.592;9.634;2023-04-24T07:16:29;1.57;;;1.00;;
1601;SDS011;794;48.592;9.634;2023-04-24T07:18:58;0.80;;;0.80;;
1601;SDS011;794;48.592;9.634;2023-04-24T07:21:25;1.00;;;0.90;;
1601;SDS011;794;48.592;9.634;2023-04-24T07:23:56;2.00;;;1.33;;
1601;SDS011;794;48.592;9.634;2023-04-24T07:26:25;1.67;;;1.10;;
1601;SDS011;794;48.592;9.634;2023-04-24T07:28:58;1.30;;;1.20;;
1601;SDS011;794;48.592;9.634;2023-04-24T07:31:25;2.07;;;1.10;;
1601;SDS011;794;48.592;9.634;2023-04-24T07:33:54;1.17;;;1.07;;
1601;SDS011;794;48.592;9.634;2023-04-24T07:36:23;1.00;;;0.80;;
1601;SDS011;794;48.592;9.634;2023-04-24T07:38:51;1.67;;;1.10;;
1601;SDS011;794;48.592;9.634;2023-04-24T07:41:25;3.63;;;1.20;;
1601;SDS011;794;48.592;9.634;2023-04-24T07:43:55;2.00;;;0.83;;
1601;SDS011;794;48.592;9.634;2023-04-24T07:46:22;1.23;;;1.13;;
1601;SDS011;794;48.592;9.634;2023-04-24T07:48:50;1.30;;;1.20;;
1601;SDS011;794;48.592;9.634;2023-04-24T07:51:19;2.30;;;1.50;;
1601;SDS011;794;48.592;9.634;2023-04-24T07:53:48;1.93;;;1.30;;
1601;SDS011;794;48.592;9.634;2023-04-24T07:56:17;1.93;;;1.53;;
1601;SDS011;794;48.592;9.634;2023-04-24T07:58:47;1.20;;;1.10;;
1601;SDS011;794;48.592;9.634;2023-04-24T08:01:14;3.37;;;1.43;;
1601;SDS011;794;48.592;9.634;2023-04-24T08:03:43;2.13;;;1.30;;
1601;SDS011;794;48.592;9.634;2023-04-24T08:06:10;1.33;;;1.23;;
1601;SDS011;794;48.592;9.634;2023-04-24T08:08:36;1.63;;;1.10;;
1601;SDS011;794;48.592;9.634;2023-04-24T08:11:03;1.30;;;1.10;;
1601;SDS011;794;48.592;9.634;2023-04-24T08:13:30;1.30;;;1.13;;
1601;SDS011;794;48.592;9.634;2023-04-24T08:16:00;1.30;;;1.20;;
1601;SDS011;794;48.592;9.634;2023-04-24T08:18:27;1.30;;;1.20;;
1601;SDS011;794;48.592;9.634;2023-04-24T08:20:54;2.63;;;1.83;;
1601;SDS011;794;48.592;9.634;2023-04-24T08:23:27;1.23;;;0.90;;
1601;SDS011;794;48.592;9.634;2023-04-24T08:25:54;1.97;;;1.30;;
1601;SDS011;794;48.592;9.634;2023-04-24T08:28:24;1.43;;;1.33;;
1601;SDS011;794;48.592;9.634;2023-04-24T08:30:53;1.20;;;1.10;;
1601;SDS011;794;48.592;9.634;2023-04-24T08:33:22;1.17;;;1.07;;
1601;SDS011;794;48.592;9.634;2023-04-24T08:35:49;1.33;;;1.23;;
1601;SDS011;794;48.592;9.634;2023-04-24T08:38:18;1.63;;;1.10;;
1601;SDS011;794;48.592;9.634;2023-04-24T08:40:44;1.90;;;1.47;;
1601;SDS011;794;48.592;9.634;2023-04-24T08:43:14;1.37;;;1.20;;
1601;SDS011;794;48.592;9.634;2023-04-24T08:45:45;1.07;;;0.97;;
1601;SDS011;794;48.592;9.634;2023-04-24T08:48:12;1.37;;;1.27;;
1601;SDS011;794;48.592;9.634;2023-04-24T08:50:43;1.40;;;1.30;;
1601;SDS011;794;48.592;9.634;2023-04-24T08:53:10;1.30;;;1.20;;
1601;SDS011;794;48.592;9.634;2023-04-24T08:55:45;3.00;;;1.23;;
1601;SDS011;794;48.592;9.634;2023-04-24T08:58:19;2.10;;;1.47;;
1601;SDS011;794;48.592;9.634;2023-04-24T09:00:55;1.77;;;1.67;;
1601;SDS011;794;48.592;9.634;2023-04-24T09:03:27;4.87;;;1.40;;
1601;SDS011;794;48.592;9.634;2023-04-24T09:05:56;1.30;;;1.20;;
1601;SDS011;794;48.592;9.634;2023-04-24T09:08:24;2.37;;;1.40;;
1601;SDS011;794;48.592;9.634;2023-04-24T09:10:52;2.00;;;1.77;;
1601;SDS011;794;48.592;9.634;2023-04-24T09:13:19;1.97;;;1.27;;
1601;SDS011;794;48.592;9.634;2023-04-24T09:15:47;1.57;;;1.47;;
1601;SDS011;794;48.592;9.634;2023-04-24T09:18:15;3.90;;;2.93;;
1601;SDS011;794;48.592;9.634;2023-04-24T09:23:33;2.47;;;1.23;;
1601;SDS011;794;48.592;9.634;2023-04-24T09:26:00;3.10;;;1.40;;
1601;SDS011;794;48.592;9.634;2023-04-24T09:28:34;2.70;;;1.43;;
1601;SDS011;794;48.592;9.634;2023-04-24T09:31:04;1.67;;;1.50;;
1601;SDS011;794;48.592;9.634;2023-04-24T09:33:34;2.90;;;1.37;;
1601;SDS011;794;48.592;9.634;2023-04-24T09:36:06;2.37;;;1.10;;
1601;SDS011;794;48.592;9.634;2023-04-24T09:38:35;1.80;;;1.33;;
1601;SDS011;794;48.592;9.634;2023-04-24T09:41:04;1.97;;;1.50;;
1601;SDS011;794;48.592;9.634;2023-04-24T09:43:35;2.30;;;1.23;;
1601;SDS011;794;48.592;9.634;2023-04-24T09:46:06;1.20;;;1.10;;
1601;SDS011;794;48.592;9.634;2023-04-24T09:48:36;1.67;;;1.57;;
1601;SDS011;794;48.592;9.634;2023-04-24T09:51:05;2.97;;;1.57;;
1601;SDS011;794;48.592;9.634;2023-04-24T09:53:35;2.67;;;1.70;;
1601;SDS011;794;48.592;9.634;2023-04-24T09:56:09;3.27;;;1.17;;
1601;SDS011;794;48.592;9.634;2023-04-24T09:58:39;1.43;;;1.30;;
1601;SDS011;794;48.592;9.634;2023-04-24T10:01:06;1.53;;;1.13;;
1601;SDS011;794;48.592;9.634;2023-04-24T10:03:35;2.20;;;1.27;;
1601;SDS011;794;48.592;9.634;2023-04-24T10:09:28;2.40;;;1.33;;
1601;SDS011;794;48.592;9.634;2023-04-24T10:11:55;1.33;;;1.00;;
1601;SDS011;794;48.592;9.634;2023-04-24T10:14:25;2.50;;;1.10;;
1601;SDS011;794;48.592;9.634;2023-04-24T10:16:53;2.83;;;1.20;;
